Time;durP1;ratioP1;P1;durP2;ratioP2;P2;SDS_P1;SDS_P2;PMS_P1;PMS_P2;Temp;Humidity;BMP_temperature;BMP_pressure;BME280_temperature;BME280_humidity;BME280_pressure;Samples;Min_cycle;Max_cycle;Signal;HPM_P1;HPM_P2
2021/08/06 00:00:06;;;;;;;5.53;3.75;;;;;;;19.07;65.57;100207.47;5055592;28;20419;-69
2021/08/06 00:02:31;;;;;;;5.85;3.72;;;;;;;19.15;64.90;100200.41;5054002;28;20429;-64
2021/08/06 00:04:57;;;;;;;7.82;4.03;;;;;;;19.21;64.57;100201.69;5055641;28;20107;-69
2021/08/06 00:07:23;;;;;;;5.28;3.53;;;;;;;19.27;64.18;100200.25;5055266;28;20035;-64
2021/08/06 00:09:49;;;;;;;6.78;3.83;;;;;;;19.32;63.78;100211.44;5056058;28;20033;-68
2021/08/06 00:12:14;;;;;;;5.00;3.47;;;;;;;19.34;64.10;100211.31;5054424;28;20501;-68
2021/08/06 00:14:40;;;;;;;5.57;3.30;;;;;;;19.38;63.96;100205.50;5055362;28;20036;-67
2021/08/06 00:17:05;;;;;;;5.53;3.38;;;;;;;19.40;63.40;100203.53;5055658;28;20017;-67
2021/08/06 00:19:31;;;;;;;6.20;3.70;;;;;;;19.38;64.36;100210.03;5055115;28;20502;-63
2021/08/06 00:21:56;;;;;;;7.78;3.40;;;;;;;19.32;64.62;100198.88;5055006;28;20025;-64
2021/08/06 00:24:21;;;;;;;5.72;3.45;;;;;;;19.27;65.13;100208.31;5055761;28;20029;-64
2021/08/06 00:26:47;;;;;;;4.95;3.40;;;;;;;19.19;65.88;100206.34;5054947;28;20052;-64
2021/08/06 00:29:12;;;;;;;5.28;3.50;;;;;;;19.03;68.49;100209.59;5054754;28;20102;-63
2021/08/06 00:31:38;;;;;;;5.22;3.45;;;;;;;18.84;68.93;100208.53;5055338;28;20433;-64
2021/08/06 00:34:04;;;;;;;8.02;3.47;;;;;;;18.70;69.07;100195.50;5054709;28;20036;-64
2021/08/06 00:36:29;;;;;;;8.25;3.97;;;;;;;18.55;71.78;100189.66;5054868;28;20025;-64
2021/08/06 00:38:55;;;;;;;7.82;3.53;;;;;;;18.37;73.47;100194.00;5054055;28;20040;-68
2021/08/06 00:41:20;;;;;;;7.00;3.78;;;;;;;18.18;74.04;100193.78;5053439;28;20085;-65
2021/08/06 00:43:45;;;;;;;6.68;3.65;;;;;;;18.07;74.27;100182.28;5053159;28;20479;-66
2021/08/06 00:46:16;;;;;;;7.65;3.90;;;;;;;17.97;74.86;100185.78;5054327;28;20071;-64
2021/08/06 00:48:42;;;;;;;7.93;3.38;;;;;;;17.91;75.18;100188.09;5053423;28;20179;-67
2021/08/06 00:51:08;;;;;;;6.30;3.70;;;;;;;17.90;74.93;100183.72;5053412;28;20033;-64
2021/08/06 00:53:33;;;;;;;6.68;3.78;;;;;;;17.93;74.47;100197.75;5052951;28;20036;-65
2021/08/06 00:55:58;;;;;;;5.13;3.22;;;;;;;17.97;74.09;100187.63;5054482;28;20025;-66
2021/08/06 00:58:24;;;;;;;5.93;3.75;;;;;;;18.00;75.02;100181.97;5053363;28;20450;-63
2021/08/06 01:00:50;;;;;;;7.60;3.40;;;;;;;18.00;74.01;100192.69;5053060;28;20542;-64
2021/08/06 01:03:22;;;;;;;4.90;3.35;;;;;;;18.02;74.45;100186.22;5052807;28;20477;-68
2021/08/06 01:06:10;;;;;;;;;;;;;;;18.01;74.96;100186.38;5053530;28;20371;-66
2021/08/06 01:08:55;;;;;;;7.22;3.40;;;;;;;17.90;76.15;100187.25;5052056;28;19913;-65
2021/08/06 01:11:25;;;;;;;6.38;3.65;;;;;;;17.76;78.42;100192.94;5052430;28;20037;-65
2021/08/06 01:13:54;;;;;;;8.53;4.33;;;;;;;17.56;80.21;100195.50;5054297;28;20052;-67
2021/08/06 01:16:26;;;;;;;8.27;4.40;;;;;;;17.24;82.85;100198.19;5054462;28;20021;-65
2021/08/06 01:19:14;;;;;;;;;;;;;;;17.01;84.08;100182.25;5054555;28;20025;-70
2021/08/06 01:21:43;;;;;;;6.80;4.50;;;;;;;16.85;85.24;100180.78;5053989;28;19924;-68
2021/08/06 01:24:10;;;;;;;9.10;5.47;;;;;;;16.77;86.75;100177.06;5054483;28;20394;-64
2021/08/06 01:26:37;;;;;;;10.20;5.28;;;;;;;16.73;87.33;100180.91;5053775;28;20021;-63
2021/08/06 01:29:04;;;;;;;7.93;5.03;;;;;;;16.70;87.83;100174.00;5053329;28;20498;-69
2021/08/06 01:31:29;;;;;;;8.88;5.10;;;;;;;16.61;87.61;100175.63;5053585;28;20052;-70
2021/08/06 01:33:55;;;;;;;9.52;4.97;;;;;;;16.60;87.78;100178.41;5053214;28;20048;-69
2021/08/06 01:36:20;;;;;;;7.05;4.70;;;;;;;16.57;88.39;100175.97;5053432;28;20036;-67
2021/08/06 01:38:46;;;;;;;8.50;5.10;;;;;;;16.53;88.08;100170.91;5053557;28;20021;-69
2021/08/06 01:41:14;;;;;;;8.65;5.03;;;;;;;16.54;88.43;100166.38;5052640;28;20044;-68
2021/08/06 01:43:59;;;;;;;8.18;5.20;;;;;;;16.52;88.73;100160.31;5053353;28;20513;-64
2021/08/06 01:46:34;;;;;;;7.68;4.97;;;;;;;16.52;89.17;100153.16;5052466;28;20045;-63
2021/08/06 01:49:13;;;;;;;9.35;5.10;;;;;;;16.53;89.32;100154.88;5053156;28;20033;-67
2021/08/06 01:51:42;;;;;;;8.02;4.75;;;;;;;16.54;88.79;100148.53;5051527;28;20051;-63
2021/08/06 01:54:11;;;;;;;9.82;4.93;;;;;;;16.54;89.10;100148.53;5052473;28;20017;-63
2021/08/06 01:56:38;;;;;;;8.57;5.00;;;;;;;16.55;88.37;100152.06;5052972;28;20059;-63
2021/08/06 01:59:03;;;;;;;10.38;5.53;;;;;;;16.55;88.74;100138.69;5052833;28;20025;-63
2021/08/06 02:01:29;;;;;;;11.07;5.35;;;;;;;16.58;89.10;100150.97;5051599;28;20111;-63
2021/08/06 02:03:55;;;;;;;7.57;5.25;;;;;;;16.60;88.59;100140.97;5052757;28;20029;-64
2021/08/06 02:06:20;;;;;;;10.35;4.90;;;;;;;16.60;88.14;100140.97;5051568;28;20053;-67
2021/08/06 02:08:47;;;;;;;6.90;4.95;;;;;;;16.64;87.91;100137.09;5052965;28;20037;-64
2021/08/06 02:11:16;;;;;;;7.38;4.75;;;;;;;16.65;87.90;100131.63;5051844;28;20049;-63
2021/08/06 02:13:41;;;;;;;8.88;4.85;;;;;;;16.66;87.94;100130.66;5051906;28;20042;-64
2021/08/06 02:16:07;;;;;;;7.47;4.53;;;;;;;16.71;87.46;100127.59;5051773;28;20028;-63
2021/08/06 02:18:33;;;;;;;7.90;4.57;;;;;;;16.75;87.15;100125.50;5052467;28;20471;-63
2021/08/06 02:21:12;;;;;;;6.63;4.43;;;;;;;16.78;87.14;100134.13;5051920;28;20113;-67
2021/08/06 02:23:43;;;;;;;6.78;4.35;;;;;;;16.78;85.86;100125.28;5032779;28;20495;-64
2021/08/06 02:26:11;;;;;;;8.48;4.30;;;;;;;16.79;85.89;100130.50;5052302;28;20041;-68
2021/08/06 02:28:36;;;;;;;6.47;4.45;;;;;;;16.82;85.83;100135.56;5051906;28;20025;-67
2021/08/06 02:31:02;;;;;;;7.32;4.20;;;;;;;16.86;85.27;100131.66;5052429;28;20106;-69
2021/08/06 02:33:28;;;;;;;6.32;4.00;;;;;;;16.91;85.73;100125.16;5051667;28;20025;-69
2021/08/06 02:35:53;;;;;;;6.97;4.00;;;;;;;16.93;85.30;100128.50;5052743;28;20095;-70
2021/08/06 02:38:23;;;;;;;7.60;3.72;;;;;;;16.94;84.66;100127.56;5051933;28;20025;-69
2021/08/06 02:40:49;;;;;;;7.90;3.92;;;;;;;16.95;84.40;100132.75;5052278;28;20052;-64
2021/08/06 02:43:15;;;;;;;7.55;3.70;;;;;;;16.94;84.43;100128.38;5052119;28;20025;-70
2021/08/06 02:45:41;;;;;;;7.15;3.95;;;;;;;16.94;84.11;100133.72;5052248;28;20033;-64
2021/08/06 02:48:06;;;;;;;6.10;4.05;;;;;;;16.96;84.08;100133.63;5051551;28;20021;-64
2021/08/06 02:50:32;;;;;;;5.47;3.67;;;;;;;16.96;84.60;100130.97;5051459;28;20395;-69
2021/08/06 02:52:57;;;;;;;6.45;4.00;;;;;;;16.94;84.50;100125.72;5050928;28;20327;-65
2021/08/06 02:55:22;;;;;;;6.85;4.00;;;;;;;16.91;84.68;100125.97;5051601;28;20115;-64
2021/08/06 02:57:48;;;;;;;9.63;4.30;;;;;;;16.91;84.83;100127.81;5051276;28;20013;-63
2021/08/06 03:00:14;;;;;;;5.88;3.50;;;;;;;16.91;85.01;100128.66;5051427;28;20490;-65
2021/08/06 03:02:39;;;;;;;5.43;3.70;;;;;;;16.93;84.97;100134.72;5051135;28;20037;-65
2021/08/06 03:05:05;;;;;;;6.05;3.70;;;;;;;16.96;85.04;100131.78;5051567;28;20033;-65
2021/08/06 03:07:30;;;;;;;7.22;3.90;;;;;;;16.94;85.01;100125.72;5051232;28;20398;-70
2021/08/06 03:09:56;;;;;;;5.30;3.78;;;;;;;16.96;84.95;100114.91;5051391;28;20032;-67
2021/08/06 03:12:21;;;;;;;6.43;3.65;;;;;;;17.00;85.16;100127.88;5052068;28;20071;-64
2021/08/06 03:14:47;;;;;;;6.47;3.33;;;;;;;17.06;84.90;100134.56;5050776;28;20036;-65
2021/08/06 03:17:12;;;;;;;5.45;3.35;;;;;;;17.05;84.89;100122.16;5051652;28;20050;-68
2021/08/06 03:19:37;;;;;;;5.05;3.20;;;;;;;17.10;84.37;100125.28;5050462;28;20101;-64
2021/08/06 03:22:03;;;;;;;6.28;3.20;;;;;;;17.11;84.82;100121.66;5050977;28;20175;-64
2021/08/06 03:24:29;;;;;;;5.80;3.55;;;;;;;17.12;85.12;100123.34;5051230;28;20025;-64
2021/08/06 03:26:54;;;;;;;5.00;3.38;;;;;;;17.15;84.51;100119.56;5050614;28;20039;-70
2021/08/06 03:29:19;;;;;;;5.30;3.30;;;;;;;17.18;84.73;100116.63;5051078;28;20060;-67
2021/08/06 03:31:45;;;;;;;5.18;3.25;;;;;;;17.18;85.02;100119.28;5051342;28;20189;-64
2021/08/06 03:34:10;;;;;;;4.22;3.08;;;;;;;17.18;85.06;100121.97;5051146;28;20083;-64
2021/08/06 03:36:37;;;;;;;5.40;3.67;;;;;;;17.20;84.96;100125.38;5050785;28;20032;-64
2021/08/06 03:39:03;;;;;;;5.45;3.65;;;;;;;17.22;84.86;100111.88;5050930;28;20032;-68
2021/08/06 03:41:28;;;;;;;7.10;3.80;;;;;;;17.20;84.80;100118.19;5050723;28;20470;-64
2021/08/06 03:43:54;;;;;;;5.43;3.60;;;;;;;17.23;85.43;100113.56;5051122;28;20036;-64
2021/08/06 03:46:19;;;;;;;6.85;3.90;;;;;;;17.21;85.02;100116.34;5050566;28;20037;-70
2021/08/06 03:48:44;;;;;;;5.35;4.10;;;;;;;17.18;85.03;100117.47;5050824;28;20021;-64
2021/08/06 03:51:09;;;;;;;6.50;3.92;;;;;;;17.19;84.88;100123.69;5051242;28;20048;-69
2021/08/06 03:53:35;;;;;;;5.55;4.28;;;;;;;17.15;85.05;100116.91;5049926;28;20104;-64
2021/08/06 03:56:00;;;;;;;5.28;4.20;;;;;;;17.15;84.86;100111.53;5051071;28;20110;-69
2021/08/06 03:58:25;;;;;;;5.88;4.40;;;;;;;17.13;85.38;100126.88;5051247;28;20044;-69
2021/08/06 04:00:51;;;;;;;8.60;4.95;;;;;;;17.13;86.03;100125.03;5051296;28;20095;-67
2021/08/06 04:03:16;;;;;;;6.63;4.72;;;;;;;17.09;85.37;100123.59;5050794;28;20075;-64
2021/08/06 04:05:41;;;;;;;7.95;5.00;;;;;;;17.08;85.72;100121.88;5050611;28;20439;-70
2021/08/06 04:08:08;;;;;;;6.03;4.65;;;;;;;17.09;86.15;100134.28;5050889;28;20419;-64
2021/08/06 04:10:34;;;;;;;7.50;4.72;;;;;;;17.06;86.16;100125.66;5051058;28;20037;-70
2021/08/06 04:12:59;;;;;;;7.53;5.30;;;;;;;17.04;85.77;100120.44;5050146;28;20029;-63
2021/08/06 04:15:25;;;;;;;7.68;5.00;;;;;;;17.02;85.40;100128.63;5050382;28;20071;-67
2021/08/06 04:17:51;;;;;;;8.95;4.95;;;;;;;17.03;86.11;100137.47;5043062;28;20029;-66
2021/08/06 04:20:17;;;;;;;10.35;5.40;;;;;;;17.00;87.06;100133.22;5050705;28;20024;-62
2021/08/06 04:22:42;;;;;;;8.52;4.85;;;;;;;16.97;86.20;100132.63;5051204;28;20031;-64
2021/08/06 04:25:09;;;;;;;7.35;5.13;;;;;;;16.97;86.79;100127.28;5050229;28;20037;-64
2021/08/06 04:27:34;;;;;;;6.68;5.10;;;;;;;17.00;86.95;100135.06;5051011;28;20017;-68
2021/08/06 04:30:00;;;;;;;9.25;5.18;;;;;;;17.01;86.94;100134.94;5050782;28;20328;-67
2021/08/06 04:32:25;;;;;;;13.10;5.10;;;;;;;17.06;86.77;100134.56;5050674;28;20029;-61
2021/08/06 04:34:51;;;;;;;8.30;5.30;;;;;;;17.07;86.35;100136.22;5050711;28;20422;-70
2021/08/06 04:37:16;;;;;;;8.75;5.18;;;;;;;17.03;86.33;100135.66;5052464;28;20020;-66
2021/08/06 04:39:41;;;;;;;8.40;5.65;;;;;;;17.05;86.92;100138.22;5054039;28;20430;-68
2021/08/06 04:42:07;;;;;;;7.38;5.78;;;;;;;17.01;87.68;100134.94;5050841;28;20037;-66
2021/08/06 04:44:34;;;;;;;7.13;5.05;;;;;;;17.01;87.12;100134.94;5053152;28;20036;-65
2021/08/06 04:47:00;;;;;;;9.00;5.68;;;;;;;16.98;86.89;100137.00;5053360;28;20050;-67
2021/08/06 04:49:25;;;;;;;8.98;5.72;;;;;;;16.92;86.82;100129.50;5055445;28;20214;-64
2021/08/06 04:51:50;;;;;;;8.82;6.20;;;;;;;16.92;86.67;100133.03;5054537;28;20462;-69
2021/08/06 04:54:16;;;;;;;8.57;6.35;;;;;;;16.88;87.33;100128.88;5053743;28;20025;-68
2021/08/06 04:56:41;;;;;;;8.43;6.05;;;;;;;16.94;87.62;100135.56;5052975;28;20025;-64
2021/08/06 04:59:06;;;;;;;8.13;6.13;;;;;;;16.98;87.16;100129.84;5053990;28;20029;-67
2021/08/06 05:01:31;;;;;;;10.18;6.30;;;;;;;16.98;87.02;100137.88;5053891;28;20495;-66
2021/08/06 05:03:57;;;;;;;9.82;6.80;;;;;;;17.03;87.14;100143.69;5053508;28;20040;-68
2021/08/06 05:06:22;;;;;;;8.23;5.32;;;;;;;17.07;86.54;100138.06;5053062;28;20021;-69
2021/08/06 05:08:49;;;;;;;8.65;5.90;;;;;;;17.06;86.64;100145.25;5050228;28;20040;-68
2021/08/06 05:11:15;;;;;;;12.77;6.65;;;;;;;17.09;86.51;100141.47;5053742;28;20071;-68
2021/08/06 05:13:41;;;;;;;8.00;5.18;;;;;;;17.10;86.81;100148.53;5052576;28;20052;-64
2021/08/06 05:16:06;;;;;;;9.68;5.82;;;;;;;17.09;86.21;100133.47;5036393;28;20387;-64
2021/08/06 05:18:37;;;;;;;8.23;5.43;;;;;;;17.11;85.52;100137.69;5054136;28;20024;-64
2021/08/06 05:21:03;;;;;;;7.80;5.43;;;;;;;17.10;85.93;100133.31;5054511;28;20028;-64
2021/08/06 05:23:28;;;;;;;11.27;5.70;;;;;;;17.11;86.09;100139.50;5054540;28;20455;-66
2021/08/06 05:25:54;;;;;;;7.80;5.03;;;;;;;17.14;84.72;100140.09;5053403;28;20025;-63
2021/08/06 05:28:19;;;;;;;8.13;5.28;;;;;;;17.16;85.43;100132.81;5054280;28;20029;-65
2021/08/06 05:30:45;;;;;;;10.18;5.90;;;;;;;17.20;84.94;100130.72;5053801;28;20470;-65
2021/08/06 05:33:10;;;;;;;10.88;5.68;;;;;;;17.28;84.77;100138.94;5053737;28;20112;-64
2021/08/06 05:35:35;;;;;;;9.73;5.60;;;;;;;17.36;84.30;100144.47;5053507;28;20435;-67
2021/08/06 05:38:01;;;;;;;10.27;5.05;;;;;;;17.44;83.98;100151.88;5053484;28;20039;-64
2021/08/06 05:40:26;;;;;;;7.95;4.82;;;;;;;17.45;83.36;100158.91;5053525;28;20032;-64
2021/08/06 05:42:52;;;;;;;7.53;4.60;;;;;;;17.45;83.43;100147.38;5052776;28;20083;-65
2021/08/06 05:45:17;;;;;;;7.70;4.60;;;;;;;17.46;83.72;100146.41;5053371;28;20017;-64
2021/08/06 05:47:46;;;;;;;8.68;4.40;;;;;;;17.51;83.82;100157.56;5053311;28;20584;-65
2021/08/06 05:50:13;;;;;;;11.90;4.07;;;;;;;17.59;83.02;100148.88;5051800;28;20402;-65
2021/08/06 05:52:39;;;;;;;7.90;4.65;;;;;;;17.66;83.13;100152.72;5053349;28;20021;-64
2021/08/06 05:55:04;;;;;;;7.78;4.57;;;;;;;17.68;82.20;100148.91;5052962;28;20017;-64
2021/08/06 05:57:30;;;;;;;7.70;4.63;;;;;;;17.62;82.84;100143.25;5052707;28;20032;-64
2021/08/06 05:59:55;;;;;;;9.45;4.40;;;;;;;17.66;82.84;100150.91;5052936;28;20071;-62
2021/08/06 06:02:20;;;;;;;10.40;4.65;;;;;;;17.73;82.43;100145.84;5034446;28;20063;-65
2021/08/06 06:04:46;;;;;;;9.73;4.90;;;;;;;17.83;81.71;100144.06;5053454;28;20478;-68
2021/08/06 06:07:11;;;;;;;11.32;5.20;;;;;;;17.90;80.88;100152.41;5053578;28;20033;-65
2021/08/06 06:09:36;;;;;;;10.25;5.13;;;;;;;18.02;79.70;100153.25;5052445;28;20086;-65
2021/08/06 06:12:02;;;;;;;10.02;4.90;;;;;;;18.05;80.45;100158.31;5053564;28;20082;-64
2021/08/06 06:14:27;;;;;;;8.48;4.85;;;;;;;18.03;79.69;100149.59;5053010;28;20029;-66
2021/08/06 06:16:52;;;;;;;9.10;4.75;;;;;;;18.01;79.97;100162.25;5052751;28;20028;-65
2021/08/06 06:19:18;;;;;;;10.07;5.25;;;;;;;18.01;80.55;100163.09;5035260;28;20028;-65
2021/08/06 06:21:43;;;;;;;9.57;5.13;;;;;;;18.01;80.12;100157.72;5052898;28;20158;-64
2021/08/06 06:24:08;;;;;;;10.15;4.95;;;;;;;18.01;80.33;100173.81;5052764;28;20104;-65
2021/08/06 06:26:34;;;;;;;11.23;4.80;;;;;;;18.01;78.24;100162.25;5053058;28;20021;-66
2021/08/06 06:28:59;;;;;;;9.75;4.40;;;;;;;18.11;78.33;100163.16;5051947;28;20439;-64
2021/08/06 06:31:25;;;;;;;12.18;4.65;;;;;;;18.21;78.13;100171.22;5052976;28;20104;-62
2021/08/06 06:33:50;;;;;;;8.85;4.57;;;;;;;18.32;78.15;100165.75;5052751;28;20478;-65
2021/08/06 06:36:15;;;;;;;10.10;4.38;;;;;;;18.42;76.78;100164.94;5053181;28;20036;-65
2021/08/06 06:38:41;;;;;;;7.88;4.60;;;;;;;18.65;76.40;100170.94;5052426;28;20032;-65
2021/08/06 06:41:06;;;;;;;11.38;4.10;;;;;;;18.75;74.90;100168.28;5051480;28;20025;-64
2021/08/06 06:43:31;;;;;;;10.15;4.25;;;;;;;18.59;74.68;100166.97;5051879;28;20032;-64
2021/08/06 06:45:57;;;;;;;10.95;4.70;;;;;;;18.41;75.13;100179.34;5052517;28;20039;-63
2021/08/06 06:48:24;;;;;;;10.30;5.10;;;;;;;18.28;75.74;100171.53;5052160;28;20044;-67
2021/08/06 06:50:50;;;;;;;8.77;4.93;;;;;;;18.24;75.56;100179.00;5052308;28;20040;-67
2021/08/06 06:53:16;;;;;;;13.73;4.90;;;;;;;18.38;74.88;100184.97;5050616;28;20029;-63
2021/08/06 06:55:41;;;;;;;11.43;5.22;;;;;;;18.53;73.91;100180.06;5051864;28;20033;-63
2021/08/06 06:58:07;;;;;;;10.20;5.47;;;;;;;18.74;74.25;100180.84;5049795;28;20472;-65
2021/08/06 07:00:33;;;;;;;11.55;5.20;;;;;;;18.70;72.60;100183.94;5048528;28;20390;-70
2021/08/06 07:02:59;;;;;;;10.77;5.40;;;;;;;18.51;73.43;100172.16;5048458;28;20433;-69
2021/08/06 07:05:25;;;;;;;10.77;5.05;;;;;;;18.44;73.38;100184.41;5048392;28;20074;-68
2021/08/06 07:07:50;;;;;;;8.40;5.13;;;;;;;18.61;73.10;100185.63;5048626;28;20029;-71
2021/08/06 07:10:16;;;;;;;9.27;4.97;;;;;;;18.59;72.80;100187.56;5048227;28;20110;-63
2021/08/06 07:12:43;;;;;;;12.40;4.78;;;;;;;18.64;72.67;100183.50;5047982;28;20123;-65
2021/08/06 07:15:11;;;;;;;8.20;4.07;;;;;;;18.93;71.73;100187.25;5049158;28;20025;-70
2021/08/06 07:17:37;;;;;;;9.88;4.18;;;;;;;19.05;70.66;100188.81;5047981;28;20032;-68
2021/08/06 07:20:04;;;;;;;9.00;4.55;;;;;;;19.12;71.49;100186.44;5048726;28;20386;-71
2021/08/06 07:22:29;;;;;;;11.90;4.47;;;;;;;19.04;70.82;100178.22;5048429;28;20172;-68
2021/08/06 07:24:55;;;;;;;10.02;4.30;;;;;;;18.88;71.76;100193.00;5039019;28;20064;-64
2021/08/06 07:27:21;;;;;;;9.75;3.72;;;;;;;18.78;72.08;100189.47;5048522;28;20135;-70
2021/08/06 07:29:47;;;;;;;10.13;4.07;;;;;;;18.93;71.33;100190.78;5048660;28;20033;-68
2021/08/06 07:32:13;;;;;;;9.27;3.83;;;;;;;19.01;71.23;100178.50;5047809;28;20036;-69
2021/08/06 07:34:38;;;;;;;9.43;3.63;;;;;;;19.04;71.47;100180.91;5047743;28;20021;-70
2021/08/06 07:37:04;;;;;;;11.07;3.97;;;;;;;18.96;70.66;100187.84;5047846;28;20057;-69
2021/08/06 07:39:29;;;;;;;9.00;4.00;;;;;;;18.88;72.48;100189.50;5047716;28;20086;-68
2021/08/06 07:41:54;;;;;;;6.03;3.60;;;;;;;18.87;71.35;100190.47;5047242;28;20576;-63
2021/08/06 07:44:20;;;;;;;8.30;4.30;;;;;;;18.84;72.15;100189.75;5047837;28;20059;-64
2021/08/06 07:46:45;;;;;;;9.63;3.92;;;;;;;18.68;72.24;100202.84;5048398;28;20028;-69
2021/08/06 07:49:11;;;;;;;11.05;4.00;;;;;;;18.56;73.43;100194.06;5047778;28;20071;-69
2021/08/06 07:51:37;;;;;;;10.60;4.50;;;;;;;18.58;73.01;100180.50;5030204;28;20124;-68
2021/08/06 07:54:03;;;;;;;12.23;4.32;;;;;;;18.71;73.21;100185.63;5047470;28;20100;-63
2021/08/06 07:56:29;;;;;;;9.20;4.85;;;;;;;18.95;70.95;100185.28;5047433;28;20404;-70
2021/08/06 07:58:54;;;;;;;8.98;4.10;;;;;;;19.25;70.75;100186.16;5047473;28;20025;-62
2021/08/06 08:01:19;;;;;;;8.05;3.97;;;;;;;19.28;69.12;100194.78;5047481;28;20397;-64
2021/08/06 08:03:45;;;;;;;8.05;3.42;;;;;;;19.44;68.39;100191.50;5049331;28;20544;-66
2021/08/06 08:06:12;;;;;;;7.65;3.30;;;;;;;19.49;68.97;100191.94;5047880;28;20025;-69
2021/08/06 08:08:37;;;;;;;5.38;3.65;;;;;;;19.28;68.60;100196.59;5048304;28;20040;-64
2021/08/06 08:11:02;;;;;;;10.40;3.88;;;;;;;19.03;69.20;100190.81;5046718;28;20045;-65
2021/08/06 08:13:28;;;;;;;6.43;3.70;;;;;;;18.98;70.04;100188.53;5052670;28;20383;-63
2021/08/06 08:15:53;;;;;;;6.85;3.60;;;;;;;19.25;69.35;100186.16;5053496;28;20043;-64
2021/08/06 08:18:18;;;;;;;6.03;3.63;;;;;;;19.41;68.63;100190.94;5052714;28;20075;-67
2021/08/06 08:20:44;;;;;;;8.90;3.90;;;;;;;19.46;69.33;100188.69;5051626;28;20487;-65
2021/08/06 08:23:10;;;;;;;6.32;3.70;;;;;;;19.63;68.43;100185.28;5050627;28;20056;-64
2021/08/06 08:25:35;;;;;;;7.95;3.70;;;;;;;19.97;68.54;100181.25;5051279;28;20067;-64
2021/08/06 08:28:00;;;;;;;11.63;4.07;;;;;;;20.36;65.91;100186.50;5050661;28;20435;-62
2021/08/06 08:30:26;;;;;;;9.98;3.88;;;;;;;20.40;65.40;100189.75;5052736;28;20156;-63
2021/08/06 08:32:51;;;;;;;7.15;3.88;;;;;;;20.18;65.38;100197.19;5051174;28;20029;-70
2021/08/06 08:35:17;;;;;;;6.53;3.38;;;;;;;20.07;65.90;100198.19;5048965;28;20041;-63
2021/08/06 08:37:42;;;;;;;8.07;3.42;;;;;;;19.97;65.72;100189.31;5047270;28;20124;-63
2021/08/06 08:40:08;;;;;;;6.05;3.00;;;;;;;19.92;64.03;100186.22;5038480;28;20021;-63
2021/08/06 08:42:34;;;;;;;5.75;3.00;;;;;;;20.04;64.62;100189.56;5050313;28;20017;-64
2021/08/06 08:45:03;;;;;;;8.90;3.45;;;;;;;20.08;64.18;100178.41;5047693;28;20040;-66
2021/08/06 08:47:32;;;;;;;7.03;3.08;;;;;;;19.76;65.39;100193.03;5051032;28;20021;-65
2021/08/06 08:49:58;;;;;;;10.00;3.20;;;;;;;19.90;65.77;100190.91;5051203;28;20033;-66
2021/08/06 08:52:23;;;;;;;7.53;2.85;;;;;;;20.35;63.99;100189.34;5053253;28;20032;-68
2021/08/06 08:54:49;;;;;;;8.70;3.05;;;;;;;20.83;62.58;100235.84;5051443;28;20021;-65
2021/08/06 08:57:21;;;;;;;6.95;2.50;;;;;;;21.11;61.38;100201.66;5052020;28;20043;-64
2021/08/06 08:59:47;;;;;;;9.63;2.97;;;;;;;21.05;61.26;100210.34;5048270;28;20021;-64
2021/08/06 09:02:14;;;;;;;4.85;2.55;;;;;;;20.86;62.67;100198.72;5048460;28;20052;-64
2021/08/06 09:04:39;;;;;;;6.88;2.80;;;;;;;20.57;62.59;100204.22;5051718;28;20090;-65
2021/08/06 09:07:05;;;;;;;5.20;2.92;;;;;;;20.87;63.39;100205.78;5052776;28;20021;-65
2021/08/06 09:09:30;;;;;;;7.93;2.60;;;;;;;21.36;60.84;100226.97;5051725;28;20446;-66
2021/08/06 09:12:03;;;;;;;5.88;2.70;;;;;;;21.20;60.60;100207.97;5058974;28;20099;-62
2021/08/06 09:14:30;;;;;;;5.97;2.60;;;;;;;20.88;60.41;100217.41;5052522;28;20047;-66
2021/08/06 09:17:03;;;;;;;6.45;2.10;;;;;;;21.13;60.38;100214.97;5051266;28;20132;-62
2021/08/06 09:19:34;;;;;;;4.45;1.85;;;;;;;21.65;58.84;100209.75;5053513;28;20021;-67
2021/08/06 09:22:12;;;;;;;;;;;;;;;22.20;56.43;100197.81;5052933;28;20036;-63
2021/08/06 09:24:57;;;;;;;4.70;2.30;;;;;;;21.98;57.33;100214.53;5049154;28;19946;-66
2021/08/06 09:27:22;;;;;;;5.75;2.65;;;;;;;22.00;57.58;100202.56;5053173;28;20032;-70
2021/08/06 09:29:47;;;;;;;6.97;3.00;;;;;;;22.13;57.45;100209.41;5053386;28;20029;-64
2021/08/06 09:32:13;;;;;;;6.35;2.90;;;;;;;22.11;57.05;100212.25;5053440;28;20061;-69
2021/08/06 09:34:43;;;;;;;11.65;3.75;;;;;;;22.14;57.69;100211.94;5052866;28;20029;-72
2021/08/06 09:37:11;;;;;;;12.98;3.95;;;;;;;22.88;55.21;100206.88;5051983;28;20074;-64
2021/08/06 09:39:49;;;;;;;6.03;2.83;;;;;;;22.61;55.92;100204.41;5051230;28;20488;-64
2021/08/06 09:42:20;;;;;;;10.68;2.40;;;;;;;21.93;57.34;100204.19;5051793;28;20033;-62
2021/08/06 09:44:56;;;;;;;8.60;3.47;;;;;;;21.26;60.22;100221.66;5052428;28;20023;-64
2021/08/06 09:47:23;;;;;;;8.02;2.90;;;;;;;20.86;64.73;100206.78;5052566;28;20036;-65
2021/08/06 09:49:54;;;;;;;6.32;2.50;;;;;;;20.60;64.18;100206.63;5051945;28;20035;-66
2021/08/06 09:52:34;;;;;;;5.05;2.00;;;;;;;20.48;64.96;100216.72;5038068;28;20111;-67
2021/08/06 09:55:01;;;;;;;8.10;2.83;;;;;;;20.58;64.64;100233.66;5051617;28;20025;-65
2021/08/06 09:57:26;;;;;;;10.23;3.40;;;;;;;20.79;63.51;100219.13;5039894;28;20104;-63
2021/08/06 09:59:54;;;;;;;4.82;2.10;;;;;;;21.01;62.28;100223.28;5032103;28;20108;-68
2021/08/06 10:02:25;;;;;;;5.55;2.15;;;;;;;20.91;62.78;100209.88;5051141;28;20041;-64
2021/08/06 10:04:56;;;;;;;4.83;2.10;;;;;;;20.69;62.67;100212.94;5051960;28;20077;-65
2021/08/06 10:07:23;;;;;;;6.28;2.15;;;;;;;20.50;63.90;100222.81;5050854;28;20059;-66
2021/08/06 10:09:49;;;;;;;4.38;2.22;;;;;;;20.45;64.66;100212.50;5038584;28;20475;-65
2021/08/06 10:12:15;;;;;;;5.25;2.30;;;;;;;20.52;64.32;100215.44;5049077;28;20056;-64
2021/08/06 10:14:40;;;;;;;5.53;2.42;;;;;;;20.54;64.05;100207.25;5052255;28;20437;-63
2021/08/06 10:17:06;;;;;;;9.73;3.13;;;;;;;20.41;64.44;100207.56;5052613;28;20150;-68
2021/08/06 10:19:31;;;;;;;10.20;3.10;;;;;;;20.11;71.45;100215.72;5051620;28;20044;-65
2021/08/06 10:21:57;;;;;;;24.60;7.60;;;;;;;19.48;75.93;100225.13;5052416;28;20087;-64
2021/08/06 10:24:22;;;;;;;7.00;3.70;;;;;;;19.24;76.91;100230.91;5052336;28;20398;-66
2021/08/06 10:26:48;;;;;;;9.85;3.55;;;;;;;19.43;77.03;100223.88;5052334;28;20024;-64
2021/08/06 10:29:19;;;;;;;6.10;3.60;;;;;;;19.50;74.90;100222.31;5052983;28;20066;-64
2021/08/06 10:32:09;;;;;;;9.37;4.20;;;;;;;19.27;73.41;100209.19;5050892;28;20118;-67
2021/08/06 10:34:34;;;;;;;4.78;2.80;;;;;;;18.96;74.41;100233.44;5050429;28;20278;-69
2021/08/06 10:37:00;;;;;;;4.63;2.47;;;;;;;18.79;77.23;100237.59;5051379;28;20028;-65
2021/08/06 10:39:31;;;;;;;4.78;2.35;;;;;;;18.59;77.51;100239.34;5050789;28;20048;-61
2021/08/06 10:41:58;;;;;;;6.40;3.45;;;;;;;18.65;78.10;100233.44;5052360;28;20029;-62
2021/08/06 10:44:23;;;;;;;5.05;2.40;;;;;;;18.77;76.19;100233.34;5050725;28;20040;-64
2021/08/06 10:46:57;;;;;;;5.40;2.53;;;;;;;18.95;77.32;100223.69;5051431;28;20096;-68
2021/08/06 10:49:23;;;;;;;5.25;2.67;;;;;;;19.11;76.83;100225.81;5050787;28;20131;-66
2021/08/06 10:51:49;;;;;;;6.90;2.67;;;;;;;19.41;73.91;100231.22;5051111;28;20040;-64
2021/08/06 10:54:27;;;;;;;4.75;2.42;;;;;;;19.40;73.37;100227.69;5051356;28;20040;-65
2021/08/06 10:57:14;;;;;;;3.38;2.20;;;;;;;19.58;72.42;100240.41;5048847;28;20380;-62
2021/08/06 10:59:40;;;;;;;3.65;2.00;;;;;;;19.55;71.66;100228.09;5045539;28;20060;-65
2021/08/06 11:02:39;;;;;;;5.88;2.50;;;;;;;19.68;72.28;100240.41;5048343;28;20036;-64
2021/08/06 11:05:31;;;;;;;2.45;2.00;;;;;;;19.84;70.41;100229.94;5050205;28;20459;-63
2021/08/06 11:07:59;;;;;;;3.45;2.85;;;;;;;20.16;67.22;100223.34;5050200;28;20037;-63
2021/08/06 11:10:42;;;;;;;4.90;2.97;;;;;;;20.28;67.32;100211.44;5048545;28;20056;-62
2021/08/06 11:13:46;;;;;;;4.75;2.90;;;;;;;20.61;68.68;100216.38;5049861;28;20439;-65
2021/08/06 11:16:12;;;;;;;4.68;3.00;;;;;;;20.44;68.32;100235.00;5005535;28;20045;-64
2021/08/06 11:18:42;;;;;;;5.40;2.90;;;;;;;19.74;72.11;100221.03;5007060;28;20038;-67
2021/08/06 11:21:07;;;;;;;5.43;3.33;;;;;;;18.70;77.61;100225.00;5009468;28;20084;-65
2021/08/06 11:23:32;;;;;;;8.65;4.13;;;;;;;18.21;82.65;100224.81;5007909;28;20125;-65